Time;durP1;ratioP1;P1;durP2;ratioP2;P2;SDS_P1;SDS_P2;PMS_P1;PMS_P2;Temp;Humidity;BMP_temperature;BMP_pressure;BME280_temperature;BME280_humidity;BME280_pressure;Samples;Min_cycle;Max_cycle;Signal;HPM_P1;HPM_P2
2022/05/10 00:01:33;;;;;;;13.77;12.37;;;;;;;;;;5055649;28;20482;-69
2022/05/10 00:04:01;;;;;;;16.07;12.70;;;;;;;;;;5055494;28;20445;-69
2022/05/10 00:06:31;;;;;;;14.47;12.70;;;;;;;;;;5055250;28;20954;-69
2022/05/10 00:08:58;;;;;;;13.90;12.40;;;;;;;;;;5055363;28;20474;-69
2022/05/10 00:11:26;;;;;;;16.13;11.30;;;;;;;;;;5055504;28;20450;-69
2022/05/10 00:13:53;;;;;;;15.90;13.30;;;;;;;;;;5055490;28;20444;-69
2022/05/10 00:16:20;;;;;;;14.17;12.73;;;;;;;;;;5055494;28;20446;-69
2022/05/10 00:18:49;;;;;;;14.27;12.77;;;;;;;;;;5055598;28;20445;-68
2022/05/10 00:21:18;;;;;;;14.10;12.27;;;;;;;;;;5056026;28;20533;-69
2022/05/10 00:23:45;;;;;;;14.03;12.63;;;;;;;;;;5055243;28;20797;-69
2022/05/10 00:26:12;;;;;;;22.07;12.87;;;;;;;;;;5055944;28;20809;-68
2022/05/10 00:28:39;;;;;;;19.10;13.60;;;;;;;;;;5055065;28;20829;-69
2022/05/10 00:31:06;;;;;;;15.23;13.73;;;;;;;;;;5054737;28;20464;-69
2022/05/10 00:33:34;;;;;;;14.17;12.87;;;;;;;;;;5054988;28;20882;-69
2022/05/10 00:36:02;;;;;;;16.87;13.67;;;;;;;;;;5054822;28;20806;-69
2022/05/10 00:38:32;;;;;;;18.93;12.67;;;;;;;;;;5054867;28;20537;-68
2022/05/10 00:41:03;;;;;;;17.33;13.80;;;;;;;;;;5054918;28;20442;-69
2022/05/10 00:43:32;;;;;;;13.70;12.10;;;;;;;;;;5054488;28;20437;-69
2022/05/10 00:46:02;;;;;;;18.20;13.80;;;;;;;;;;5054496;28;20446;-69
2022/05/10 00:48:32;;;;;;;15.80;11.90;;;;;;;;;;5055200;28;20477;-68
2022/05/10 00:51:03;;;;;;;15.00;13.13;;;;;;;;;;5055195;28;20465;-69
2022/05/10 00:53:37;;;;;;;15.30;13.70;;;;;;;;;;5054391;28;20435;-69
2022/05/10 00:56:06;;;;;;;14.57;12.73;;;;;;;;;;5054452;28;20434;-68
2022/05/10 00:58:38;;;;;;;15.10;13.53;;;;;;;;;;5054513;28;20458;-68
2022/05/10 01:01:06;;;;;;;19.27;13.47;;;;;;;;;;5054511;28;20798;-69
2022/05/10 01:03:34;;;;;;;14.40;12.90;;;;;;;;;;5054199;28;20426;-68
2022/05/10 01:06:05;;;;;;;15.20;13.70;;;;;;;;;;5054167;28;20953;-69
2022/05/10 01:08:38;;;;;;;17.33;13.33;;;;;;;;;;5054286;28;20568;-69
2022/05/10 01:11:08;;;;;;;16.67;14.20;;;;;;;;;;5053617;28;20452;-68
2022/05/10 01:13:37;;;;;;;15.57;13.63;;;;;;;;;;5053972;28;20445;-69
2022/05/10 01:16:07;;;;;;;15.63;13.77;;;;;;;;;;5053971;28;20943;-69
2022/05/10 01:18:34;;;;;;;17.73;14.17;;;;;;;;;;5054124;28;20460;-68
2022/05/10 01:21:06;;;;;;;16.20;14.50;;;;;;;;;;5054694;28;20448;-68
2022/05/10 01:23:50;;;;;;;16.77;15.00;;;;;;;;;;5054165;28;20426;-68
2022/05/10 01:26:24;;;;;;;18.20;14.90;;;;;;;;;;5021866;28;20814;-69
2022/05/10 01:28:54;;;;;;;17.20;14.77;;;;;;;;;;5054576;28;20583;-69
2022/05/10 01:31:23;;;;;;;17.33;14.83;;;;;;;;;;5053977;28;20461;-68
2022/05/10 01:33:52;;;;;;;19.47;15.60;;;;;;;;;;5053570;28;20458;-68
2022/05/10 01:36:24;;;;;;;19.40;15.43;;;;;;;;;;5053648;28;20540;-68
2022/05/10 01:38:56;;;;;;;19.50;15.53;;;;;;;;;;5053863;28;20426;-68
2022/05/10 01:41:28;;;;;;;16.73;14.83;;;;;;;;;;5053913;28;20430;-69
2022/05/10 01:44:00;;;;;;;17.80;15.53;;;;;;;;;;5054230;28;20434;-69
2022/05/10 01:46:29;;;;;;;15.87;14.40;;;;;;;;;;5053909;28;20434;-69
2022/05/10 01:49:00;;;;;;;17.37;15.57;;;;;;;;;;5053573;28;20481;-69
2022/05/10 01:51:30;;;;;;;16.90;15.20;;;;;;;;;;5053385;28;20533;-69
2022/05/10 01:53:57;;;;;;;18.70;16.73;;;;;;;;;;5053891;28;20441;-69
2022/05/10 01:56:26;;;;;;;16.93;13.80;;;;;;;;;;5053588;28;20798;-70
2022/05/10 01:58:54;;;;;;;16.70;15.10;;;;;;;;;;5053607;28;20478;-69
2022/05/10 02:01:25;;;;;;;16.43;14.73;;;;;;;;;;5053244;28;20473;-69
2022/05/10 02:03:54;;;;;;;16.70;14.80;;;;;;;;;;5053393;28;20840;-70
2022/05/10 02:06:27;;;;;;;23.57;16.13;;;;;;;;;;5053458;28;20449;-69
2022/05/10 02:08:57;;;;;;;14.93;13.53;;;;;;;;;;5053100;28;20473;-69
2022/05/10 02:11:25;;;;;;;15.03;13.63;;;;;;;;;;5053249;28;20521;-69
2022/05/10 02:13:54;;;;;;;18.27;15.17;;;;;;;;;;5053048;28;20545;-69
2022/05/10 02:16:25;;;;;;;17.17;14.77;;;;;;;;;;5053125;28;20441;-69
2022/05/10 02:18:56;;;;;;;15.97;14.37;;;;;;;;;;5053077;28;20918;-69
2022/05/10 02:21:25;;;;;;;15.50;13.97;;;;;;;;;;5054876;28;20502;-69
2022/05/10 02:23:55;;;;;;;16.20;13.47;;;;;;;;;;5057240;28;20441;-69
2022/05/10 02:26:26;;;;;;;15.93;14.33;;;;;;;;;;5057478;28;20442;-69
2022/05/10 02:28:57;;;;;;;15.40;13.80;;;;;;;;;;5057503;28;20465;-69
2022/05/10 02:31:27;;;;;;;16.90;13.83;;;;;;;;;;5057296;28;20454;-69
2022/05/10 02:33:55;;;;;;;15.50;13.90;;;;;;;;;;5057529;28;20430;-69
2022/05/10 02:36:22;;;;;;;16.63;13.57;;;;;;;;;;5057018;28;20450;-69
2022/05/10 02:38:49;;;;;;;17.10;15.40;;;;;;;;;;5056985;28;20456;-69
2022/05/10 02:41:18;;;;;;;15.70;14.10;;;;;;;;;;5057209;28;20445;-69
2022/05/10 02:43:48;;;;;;;15.30;13.40;;;;;;;;;;5057311;28;20438;-69
2022/05/10 02:46:15;;;;;;;15.10;13.07;;;;;;;;;;5056808;28;20434;-69
2022/05/10 02:48:45;;;;;;;13.63;12.47;;;;;;;;;;5057413;28;20572;-69
2022/05/10 02:51:12;;;;;;;17.07;14.27;;;;;;;;;;5057054;28;20541;-68
2022/05/10 02:53:40;;;;;;;16.27;14.67;;;;;;;;;;5056695;28;20887;-69
2022/05/10 02:56:08;;;;;;;16.03;13.93;;;;;;;;;;5056556;28;20442;-69
2022/05/10 02:58:37;;;;;;;15.63;14.23;;;;;;;;;;5056871;28;20532;-69
2022/05/10 03:01:08;;;;;;;15.03;13.63;;;;;;;;;;5056454;28;20481;-69
2022/05/10 03:03:36;;;;;;;16.53;14.93;;;;;;;;;;5057579;28;20441;-69
2022/05/10 03:06:05;;;;;;;14.13;12.93;;;;;;;;;;5056936;28;20449;-69
2022/05/10 03:08:32;;;;;;;15.83;14.23;;;;;;;;;;5056613;28;20834;-69
2022/05/10 03:10:59;;;;;;;15.77;14.10;;;;;;;;;;5056230;28;20974;-69
2022/05/10 03:13:27;;;;;;;17.37;15.57;;;;;;;;;;5056907;28;20453;-69
2022/05/10 03:15:54;;;;;;;15.40;13.80;;;;;;;;;;5056477;28;20437;-69
2022/05/10 03:18:21;;;;;;;15.70;14.13;;;;;;;;;;5056549;28;20442;-69
2022/05/10 03:20:48;;;;;;;15.50;14.10;;;;;;;;;;5056463;28;20442;-69
2022/05/10 03:23:17;;;;;;;15.13;13.60;;;;;;;;;;5056546;28;20454;-69
2022/05/10 03:25:44;;;;;;;14.13;12.60;;;;;;;;;;5056029;28;20441;-68
2022/05/10 03:28:11;;;;;;;14.20;12.90;;;;;;;;;;5056335;28;20441;-69
2022/05/10 03:30:39;;;;;;;21.20;13.87;;;;;;;;;;5056385;28;20440;-69
2022/05/10 03:33:06;;;;;;;14.73;13.43;;;;;;;;;;5055441;28;20446;-69
2022/05/10 03:35:33;;;;;;;15.03;13.70;;;;;;;;;;5056119;28;20438;-69
2022/05/10 03:38:01;;;;;;;16.10;14.50;;;;;;;;;;5056119;28;20969;-69
2022/05/10 03:40:30;;;;;;;16.00;13.10;;;;;;;;;;5056142;28;20451;-69
2022/05/10 03:42:57;;;;;;;17.40;13.97;;;;;;;;;;5056276;28;20438;-69
2022/05/10 03:45:25;;;;;;;17.37;13.80;;;;;;;;;;5055951;28;20449;-69
2022/05/10 03:47:53;;;;;;;14.60;13.03;;;;;;;;;;5055954;28;20450;-67
2022/05/10 03:50:22;;;;;;;17.23;15.50;;;;;;;;;;5056266;28;20488;-67
2022/05/10 03:52:49;;;;;;;15.97;14.30;;;;;;;;;;5056470;28;20456;-66
2022/05/10 03:55:18;;;;;;;16.10;14.60;;;;;;;;;;5055429;28;20957;-68
2022/05/10 03:57:47;;;;;;;17.07;15.13;;;;;;;;;;5054862;28;20932;-67
2022/05/10 04:00:16;;;;;;;15.47;13.47;;;;;;;;;;5055659;28;20819;-67
2022/05/10 04:02:43;;;;;;;18.23;14.90;;;;;;;;;;5056023;28;20481;-66
2022/05/10 04:05:11;;;;;;;15.07;13.73;;;;;;;;;;5055639;28;20430;-66
2022/05/10 04:07:38;;;;;;;14.80;13.40;;;;;;;;;;5055643;28;20444;-66
2022/05/10 04:10:08;;;;;;;17.77;13.70;;;;;;;;;;5055570;28;20485;-66
2022/05/10 04:12:35;;;;;;;15.20;13.60;;;;;;;;;;5055457;28;20788;-66
2022/05/10 04:15:04;;;;;;;14.83;13.47;;;;;;;;;;5055490;28;20446;-68
2022/05/10 04:17:31;;;;;;;15.90;14.20;;;;;;;;;;5055332;28;20450;-67
2022/05/10 04:19:58;;;;;;;17.80;12.97;;;;;;;;;;5055434;28;20546;-67
2022/05/10 04:22:26;;;;;;;14.30;12.90;;;;;;;;;;5055250;28;20445;-66
2022/05/10 04:24:53;;;;;;;15.30;13.87;;;;;;;;;;5055308;28;20438;-67
2022/05/10 04:27:20;;;;;;;14.50;12.70;;;;;;;;;;5054598;28;20452;-67
2022/05/10 04:29:47;;;;;;;14.17;12.77;;;;;;;;;;5054797;28;20509;-67
2022/05/10 04:32:16;;;;;;;14.67;13.17;;;;;;;;;;5055007;28;20460;-66
2022/05/10 04:34:43;;;;;;;14.40;13.10;;;;;;;;;;5054719;28;20452;-67
2022/05/10 04:37:11;;;;;;;17.57;13.00;;;;;;;;;;5054588;28;20449;-66
2022/05/10 04:42:23;;;;;;;13.37;12.03;;;;;;;;;;5054718;28;20409;-66
2022/05/10 04:44:50;;;;;;;15.17;13.57;;;;;;;;;;5054353;28;20957;-66
2022/05/10 04:47:19;;;;;;;14.03;12.73;;;;;;;;;;5054853;28;20529;-67
2022/05/10 04:49:46;;;;;;;15.10;13.50;;;;;;;;;;5055056;28;20572;-66
2022/05/10 04:52:13;;;;;;;14.07;12.67;;;;;;;;;;5054642;28;20442;-67
2022/05/10 04:54:40;;;;;;;15.77;12.43;;;;;;;;;;5054386;28;20939;-67
2022/05/10 04:57:08;;;;;;;13.50;11.90;;;;;;;;;;5054193;28;20485;-67
2022/05/10 04:59:35;;;;;;;14.50;12.87;;;;;;;;;;5054457;28;20803;-67
2022/05/10 05:02:02;;;;;;;12.40;11.20;;;;;;;;;;5054282;28;20471;-67
2022/05/10 05:04:31;;;;;;;13.43;12.13;;;;;;;;;;5054478;28;20542;-67
2022/05/10 05:06:58;;;;;;;14.37;12.73;;;;;;;;;;5054662;28;20792;-67
2022/05/10 05:09:25;;;;;;;13.73;12.47;;;;;;;;;;5054386;28;20473;-67
2022/05/10 05:11:53;;;;;;;14.97;13.40;;;;;;;;;;5054291;28;20511;-67
2022/05/10 05:14:20;;;;;;;14.10;12.80;;;;;;;;;;5054333;28;20532;-66
2022/05/10 05:16:47;;;;;;;17.47;12.60;;;;;;;;;;5054113;28;20444;-68
2022/05/10 05:19:14;;;;;;;13.77;12.47;;;;;;;;;;5054187;28;20441;-68
2022/05/10 05:21:44;;;;;;;16.63;14.53;;;;;;;;;;5053789;28;20444;-67
2022/05/10 05:24:12;;;;;;;14.63;13.23;;;;;;;;;;5054446;28;20833;-67
2022/05/10 05:26:39;;;;;;;15.13;11.97;;;;;;;;;;5053996;28;20458;-67
2022/05/10 05:29:06;;;;;;;14.70;13.03;;;;;;;;;;5053764;28;20473;-68
2022/05/10 05:31:34;;;;;;;15.00;13.50;;;;;;;;;;5053927;28;20726;-67
2022/05/10 05:34:01;;;;;;;14.70;13.40;;;;;;;;;;5053973;28;20785;-67
2022/05/10 05:36:28;;;;;;;14.60;13.20;;;;;;;;;;5053930;28;20470;-67
2022/05/10 05:38:57;;;;;;;14.33;12.93;;;;;;;;;;5053852;28;20446;-67
2022/05/10 05:41:24;;;;;;;18.03;14.07;;;;;;;;;;5053874;28;20446;-68
2022/05/10 05:43:51;;;;;;;13.73;12.47;;;;;;;;;;5053723;28;20476;-67
2022/05/10 05:46:18;;;;;;;14.20;12.23;;;;;;;;;;5053802;28;20446;-67
2022/05/10 05:48:46;;;;;;;14.33;12.77;;;;;;;;;;5053094;28;20500;-67
2022/05/10 05:51:13;;;;;;;13.97;12.30;;;;;;;;;;5053694;28;20464;-68
2022/05/10 05:53:40;;;;;;;14.43;12.60;;;;;;;;;;5053688;28;20442;-68
2022/05/10 05:56:10;;;;;;;16.37;12.30;;;;;;;;;;5053340;28;20528;-68
2022/05/10 05:58:38;;;;;;;14.20;12.23;;;;;;;;;;5053509;28;20441;-67
2022/05/10 06:01:11;;;;;;;13.00;11.60;;;;;;;;;;5053160;28;20442;-67
2022/05/10 06:03:38;;;;;;;17.90;12.37;;;;;;;;;;5053690;28;20513;-67
2022/05/10 06:06:06;;;;;;;12.67;11.50;;;;;;;;;;5053225;28;20532;-67
2022/05/10 06:08:33;;;;;;;12.90;11.30;;;;;;;;;;5053532;28;20532;-67
2022/05/10 06:11:00;;;;;;;13.93;12.70;;;;;;;;;;5053106;28;20552;-67
2022/05/10 06:13:29;;;;;;;12.13;10.97;;;;;;;;;;5053339;28;20528;-67
2022/05/10 06:15:56;;;;;;;14.73;11.50;;;;;;;;;;5053139;28;20534;-67
2022/05/10 06:18:23;;;;;;;13.60;12.30;;;;;;;;;;5052981;28;20449;-67
2022/05/10 06:20:53;;;;;;;12.50;11.37;;;;;;;;;;5052971;28;20453;-67
2022/05/10 06:23:20;;;;;;;14.10;12.23;;;;;;;;;;5053359;28;20442;-67
2022/05/10 06:25:47;;;;;;;16.63;11.77;;;;;;;;;;5053333;28;20433;-67
2022/05/10 06:28:15;;;;;;;12.50;11.30;;;;;;;;;;5053593;28;20790;-67
2022/05/10 06:30:44;;;;;;;13.50;11.30;;;;;;;;;;5053167;28;20576;-67
2022/05/10 06:33:11;;;;;;;16.80;11.80;;;;;;;;;;5052825;28;20448;-67
2022/05/10 06:35:39;;;;;;;13.00;11.27;;;;;;;;;;5053201;28;20456;-67
2022/05/10 06:38:24;;;;;;;13.00;11.13;;;;;;;;;;5053007;28;20965;-68
2022/05/10 06:40:52;;;;;;;14.03;12.20;;;;;;;;;;5053594;28;20434;-67
2022/05/10 06:43:19;;;;;;;12.57;11.37;;;;;;;;;;5053065;28;20442;-68
2022/05/10 06:45:48;;;;;;;13.50;12.20;;;;;;;;;;5053148;28;20441;-67
2022/05/10 06:48:15;;;;;;;12.70;11.50;;;;;;;;;;5053806;28;20449;-67
2022/05/10 06:50:43;;;;;;;12.20;11.00;;;;;;;;;;5052711;28;20473;-67
2022/05/10 06:53:11;;;;;;;17.07;11.80;;;;;;;;;;5052953;28;20499;-67
2022/05/10 06:55:39;;;;;;;15.00;11.60;;;;;;;;;;5053062;28;20449;-67
2022/05/10 06:58:07;;;;;;;19.07;11.93;;;;;;;;;;5052624;28;20983;-67
2022/05/10 07:00:35;;;;;;;11.63;10.53;;;;;;;;;;5053055;28;20532;-67
2022/05/10 07:03:06;;;;;;;13.23;11.67;;;;;;;;;;5053143;28;20565;-67
2022/05/10 07:05:33;;;;;;;12.80;11.17;;;;;;;;;;5053808;28;20510;-67
2022/05/10 07:08:00;;;;;;;13.80;10.97;;;;;;;;;;5054359;28;20453;-67
2022/05/10 07:10:28;;;;;;;11.10;10.10;;;;;;;;;;5056558;28;20911;-67
2022/05/10 07:12:55;;;;;;;17.23;11.00;;;;;;;;;;5056749;28;20457;-67
2022/05/10 07:15:22;;;;;;;12.50;11.20;;;;;;;;;;5056961;28;20445;-67
2022/05/10 07:17:50;;;;;;;11.83;10.10;;;;;;;;;;5056426;28;20805;-67
2022/05/10 07:20:18;;;;;;;15.83;13.70;;;;;;;;;;5056188;28;20486;-68
2022/05/10 07:22:46;;;;;;;12.77;11.60;;;;;;;;;;5056302;28;20457;-67
2022/05/10 07:25:14;;;;;;;12.23;11.10;;;;;;;;;;5055954;28;20997;-68
2022/05/10 07:27:41;;;;;;;14.00;11.70;;;;;;;;;;5056619;28;20785;-67
2022/05/10 07:30:09;;;;;;;14.57;11.40;;;;;;;;;;5055839;28;20991;-67
2022/05/10 07:32:36;;;;;;;16.63;11.03;;;;;;;;;;5056290;28;20439;-67
2022/05/10 07:35:10;;;;;;;13.13;11.93;;;;;;;;;;5055856;28;20448;-67
2022/05/10 07:37:39;;;;;;;15.30;11.80;;;;;;;;;;5056303;28;20427;-68
2022/05/10 07:40:07;;;;;;;13.40;11.80;;;;;;;;;;5056020;28;20489;-67
2022/05/10 07:42:36;;;;;;;13.73;11.83;;;;;;;;;;5055779;28;20439;-67
2022/05/10 07:45:03;;;;;;;15.67;13.27;;;;;;;;;;5055662;28;20539;-68
2022/05/10 07:47:30;;;;;;;15.90;13.30;;;;;;;;;;5055924;28;20451;-68
2022/05/10 07:49:58;;;;;;;16.40;12.17;;;;;;;;;;5055791;28;20484;-67
2022/05/10 07:52:25;;;;;;;16.23;11.77;;;;;;;;;;5055621;28;20563;-67
2022/05/10 07:54:54;;;;;;;12.20;11.03;;;;;;;;;;5055459;28;20452;-67
2022/05/10 07:57:21;;;;;;;13.93;11.93;;;;;;;;;;5055519;28;20448;-67
2022/05/10 07:59:48;;;;;;;13.33;11.77;;;;;;;;;;5055447;28;20531;-67
2022/05/10 08:02:16;;;;;;;14.90;11.47;;;;;;;;;;5055201;28;20479;-67
2022/05/10 08:04:43;;;;;;;14.90;13.40;;;;;;;;;;5055625;28;20449;-67
2022/05/10 08:07:10;;;;;;;15.97;13.17;;;;;;;;;;5054925;28;20462;-67
2022/05/10 08:09:38;;;;;;;13.07;11.87;;;;;;;;;;5055022;28;20466;-68
2022/05/10 08:12:07;;;;;;;13.80;12.40;;;;;;;;;;5055234;28;20454;-67
2022/05/10 08:14:34;;;;;;;17.70;12.07;;;;;;;;;;5055016;28;20954;-68
2022/05/10 08:17:01;;;;;;;17.60;12.10;;;;;;;;;;5055632;28;20823;-68
2022/05/10 08:19:28;;;;;;;16.33;12.20;;;;;;;;;;5054460;28;20447;-67
2022/05/10 08:21:58;;;;;;;14.13;12.73;;;;;;;;;;5055269;28;20531;-68
2022/05/10 08:24:25;;;;;;;14.20;12.70;;;;;;;;;;5055772;28;20441;-68
2022/05/10 08:26:53;;;;;;;14.97;11.27;;;;;;;;;;5055367;28;20447;-69
2022/05/10 08:29:21;;;;;;;15.53;12.30;;;;;;;;;;5055773;28;20440;-68
2022/05/10 08:31:48;;;;;;;13.10;11.67;;;;;;;;;;5054853;28;20578;-67
2022/05/10 08:34:16;;;;;;;15.97;12.20;;;;;;;;;;5054750;28;20933;-68
2022/05/10 08:36:46;;;;;;;11.77;10.57;;;;;;;;;;5055025;28;20446;-67
2022/05/10 08:39:13;;;;;;;15.20;11.80;;;;;;;;;;5054669;28;20465;-67
2022/05/10 08:41:43;;;;;;;12.83;11.60;;;;;;;;;;5054723;28;20455;-67
2022/05/10 08:44:14;;;;;;;14.90;11.17;;;;;;;;;;5054540;28;20477;-67
2022/05/10 08:46:46;;;;;;;11.70;10.40;;;;;;;;;;5054943;28;20441;-68
2022/05/10 08:49:15;;;;;;;11.50;10.17;;;;;;;;;;5054452;28;20461;-67
2022/05/10 08:51:42;;;;;;;10.90;9.87;;;;;;;;;;5054695;28;20914;-67
2022/05/10 08:54:10;;;;;;;11.90;9.40;;;;;;;;;;5054751;28;20441;-68
2022/05/10 08:56:41;;;;;;;12.03;9.50;;;;;;;;;;5054701;28;20442;-67
2022/05/10 08:59:15;;;;;;;11.97;9.73;;;;;;;;;;5055042;28;20441;-67
2022/05/10 09:01:55;;;;;;;9.77;8.87;;;;;;;;;;5054902;28;20470;-67
2022/05/10 09:04:32;;;;;;;10.40;9.40;;;;;;;;;;5054459;28;20774;-67
2022/05/10 09:07:02;;;;;;;12.53;9.00;;;;;;;;;;5054797;28;20437;-67
2022/05/10 09:09:30;;;;;;;11.20;8.37;;;;;;;;;;5054036;28;20935;-68
2022/05/10 09:12:03;;;;;;;9.20;7.97;;;;;;;;;;5054319;28;20482;-68
2022/05/10 09:14:33;;;;;;;14.40;8.50;;;;;;;;;;5054034;28;20431;-68
2022/05/10 09:17:03;;;;;;;9.77;7.27;;;;;;;;;;5054109;28;20441;-68
2022/05/10 09:19:33;;;;;;;8.00;7.30;;;;;;;;;;5054253;28;20620;-68
2022/05/10 09:22:06;;;;;;;9.40;7.13;;;;;;;;;;5055143;28;20442;-68
2022/05/10 09:24:34;;;;;;;9.13;7.33;;;;;;;;;;5054494;28;20436;-68
2022/05/10 09:27:04;;;;;;;10.47;7.33;;;;;;;;;;5053845;28;20542;-68
2022/05/10 09:29:33;;;;;;;10.20;6.50;;;;;;;;;;5053993;28;20453;-67
2022/05/10 09:34:59;;;;;;;6.50;5.90;;;;;;;;;;5054048;28;20528;-68
2022/05/10 09:37:28;;;;;;;7.30;6.40;;;;;;;;;;5054114;28;20440;-68
2022/05/10 09:40:04;;;;;;;7.80;6.87;;;;;;;;;;5053834;28;20446;-68
2022/05/10 09:42:33;;;;;;;8.93;6.43;;;;;;;;;;5054796;28;20466;-68
2022/05/10 09:45:02;;;;;;;6.50;5.40;;;;;;;;;;5053813;28;20443;-68
2022/05/10 09:47:31;;;;;;;9.13;6.40;;;;;;;;;;5053770;28;20490;-68
2022/05/10 09:50:15;;;;;;;8.73;6.60;;;;;;;;;;5053799;28;20444;-68
2022/05/10 09:52:43;;;;;;;6.00;5.40;;;;;;;;;;5053426;28;20438;-67
2022/05/10 09:55:15;;;;;;;8.20;5.60;;;;;;;;;;5053564;28;20874;-68
2022/05/10 09:57:43;;;;;;;7.40;5.40;;;;;;;;;;5053772;28;20458;-68
2022/05/10 10:00:14;;;;;;;8.07;5.20;;;;;;;;;;5053409;28;20448;-68
2022/05/10 10:02:43;;;;;;;6.23;5.40;;;;;;;;;;5053811;28;20901;-68
2022/05/10 10:05:21;;;;;;;6.03;5.43;;;;;;;;;;5053187;28;20903;-68
2022/05/10 10:07:53;;;;;;;6.10;4.60;;;;;;;;;;5053209;28;20506;-68
2022/05/10 10:10:24;;;;;;;5.73;5.17;;;;;;;;;;5053336;28;20452;-68
2022/05/10 10:12:51;;;;;;;5.60;5.10;;;;;;;;;;5053529;28;20438;-68
2022/05/10 10:15:22;;;;;;;6.03;5.17;;;;;;;;;;5053845;28;20447;-68
2022/05/10 10:17:52;;;;;;;6.57;5.90;;;;;;;;;;5053842;28;20435;-68
2022/05/10 10:20:23;;;;;;;7.13;5.13;;;;;;;;;;5053637;28;20423;-68
2022/05/10 10:22:52;;;;;;;9.37;4.70;;;;;;;;;;5053985;28;20450;-68
2022/05/10 10:25:21;;;;;;;6.00;5.40;;;;;;;;;;5053532;28;20531;-68
2022/05/10 10:27:51;;;;;;;6.30;5.00;;;;;;;;;;5053216;28;20447;-67
2022/05/10 10:30:22;;;;;;;5.77;5.27;;;;;;;;;;5053100;28;20489;-68
2022/05/10 10:32:53;;;;;;;6.27;5.20;;;;;;;;;;5053372;28;20434;-68
2022/05/10 10:35:24;;;;;;;6.27;5.03;;;;;;;;;;5052909;28;20518;-67
2022/05/10 10:37:52;;;;;;;9.40;5.53;;;;;;;;;;5053034;28;20454;-68
2022/05/10 10:40:28;;;;;;;6.83;4.70;;;;;;;;;;5053234;28;20444;-68
2022/05/10 10:42:58;;;;;;;10.30;5.20;;;;;;;;;;5054796;28;20459;-67
2022/05/10 10:45:34;;;;;;;5.70;4.50;;;;;;;;;;5057574;28;20484;-68
2022/05/10 10:48:05;;;;;;;6.10;4.70;;;;;;;;;;5058012;28;20438;-68
2022/05/10 10:50:34;;;;;;;9.50;4.97;;;;;;;;;;5057251;28;20532;-68
2022/05/10 10:53:02;;;;;;;4.90;4.50;;;;;;;;;;5057176;28;20437;-68
2022/05/10 10:55:36;;;;;;;4.80;4.40;;;;;;;;;;5056972;28;20438;-68
2022/05/10 10:58:10;;;;;;;8.20;4.40;;;;;;;;;;5057823;28;20441;-69
2022/05/10 11:00:39;;;;;;;5.47;4.50;;;;;;;;;;5056868;28;20450;-68
2022/05/10 11:03:16;;;;;;;4.43;3.90;;;;;;;;;;5056642;28;20838;-68
2022/05/10 11:05:58;;;;;;;4.87;4.40;;;;;;;;;;5057091;28;20880;-69
2022/05/10 11:08:41;;;;;;;5.30;4.43;;;;;;;;;;5057535;28;20430;-68
2022/05/10 11:11:11;;;;;;;6.20;5.37;;;;;;;;;;5056798;28;21080;-69
2022/05/10 11:13:43;;;;;;;6.63;4.77;;;;;;;;;;5056654;28;20469;-68
2022/05/10 11:16:21;;;;;;;5.20;4.80;;;;;;;;;;5057029;28;20426;-69
2022/05/10 11:18:58;;;;;;;9.20;6.10;;;;;;;;;;5057073;28;20448;-68
2022/05/10 11:21:34;;;;;;;6.10;5.03;;;;;;;;;;5056366;28;20961;-68
2022/05/10 11:24:04;;;;;;;5.20;4.80;;;;;;;;;;5056758;28;20430;-68
2022/05/10 11:26:41;;;;;;;5.27;4.77;;;;;;;;;;5056677;28;20449;-69
2022/05/10 11:29:24;;;;;;;6.10;5.60;;;;;;;;;;5056956;28;20430;-69
2022/05/10 11:31:55;;;;;;;6.20;5.20;;;;;;;;;;5056083;28;20492;-69
2022/05/10 11:34:30;;;;;;;6.43;5.10;;;;;;;;;;5055910;28;20417;-67
2022/05/10 11:36:59;;;;;;;8.97;6.07;;;;;;;;;;5056223;28;20517;-73
2022/05/10 11:39:40;;;;;;;9.57;5.10;;;;;;;;;;5056247;28;20418;-73
2022/05/10 11:42:20;;;;;;;10.00;5.50;;;;;;;;;;5056410;28;20521;-73
2022/05/10 11:47:48;;;;;;;7.90;5.20;;;;;;;;;;5056000;28;20405;-73
2022/05/10 11:50:33;;;;;;;5.40;4.90;;;;;;;;;;5055095;28;20439;-73
2022/05/10 11:53:31;;;;;;;8.03;5.23;;;;;;;;;;5055765;28;20470;-73
2022/05/10 11:55:59;;;;;;;7.13;5.17;;;;;;;;;;5055661;28;20440;-73
2022/05/10 11:58:27;;;;;;;6.00;5.40;;;;;;;;;;5055731;28;20537;-72
2022/05/10 12:00:56;;;;;;;6.10;5.40;;;;;;;;;;5056015;28;20451;-73
2022/05/10 12:03:43;;;;;;;6.10;5.50;;;;;;;;;;5055738;28;20473;-73
2022/05/10 12:06:25;;;;;;;6.60;5.73;;;;;;;;;;5055692;28;20445;-72
2022/05/10 12:08:54;;;;;;;8.67;5.20;;;;;;;;;;5043264;28;20456;-73
2022/05/10 12:11:38;;;;;;;19.80;6.20;;;;;;;;;;5055775;28;20498;-72
2022/05/10 12:22:53;;;;;;;12.83;6.60;;;;;;;;;;5055110;28;20957;-72
2022/05/10 12:25:39;;;;;;;6.57;6.00;;;;;;;;;;5054982;28;20480;-72
2022/05/10 12:28:07;;;;;;;9.37;5.87;;;;;;;;;;5055252;28;20464;-73
2022/05/10 12:30:35;;;;;;;9.00;6.13;;;;;;;;;;5055103;28;20450;-72
2022/05/10 12:33:21;;;;;;;10.30;5.87;;;;;;;;;;5054690;28;20474;-71
2022/05/10 12:36:16;;;;;;;6.20;5.03;;;;;;;;;;5055155;28;20450;-72
2022/05/10 12:38:48;;;;;;;7.10;4.57;;;;;;;;;;5054982;28;20431;-71
2022/05/10 12:41:46;;;;;;;7.20;4.77;;;;;;;;;;5054609;28;20435;-72
2022/05/10 12:44:27;;;;;;;9.37;4.43;;;;;;;;;;4973993;28;20450;-71
2022/05/10 12:47:04;;;;;;;5.67;5.13;;;;;;;;;;5043141;28;20454;-71
2022/05/10 12:49:41;;;;;;;5.47;4.97;;;;;;;;;;5054584;28;20437;-72
2022/05/10 12:52:20;;;;;;;6.00;4.80;;;;;;;;;;5054759;28;20481;-72
2022/05/10 12:54:50;;;;;;;5.70;5.10;;;;;;;;;;5054808;28;20431;-72
2022/05/10 12:57:22;;;;;;;10.90;4.43;;;;;;;;;;5054790;28;20787;-72
2022/05/10 12:59:56;;;;;;;5.73;4.37;;;;;;;;;;5054770;28;20480;-72
2022/05/10 13:02:24;;;;;;;6.03;4.67;;;;;;;;;;5054760;28;20857;-73
2022/05/10 13:04:53;;;;;;;4.73;4.33;;;;;;;;;;5054243;28;20439;-72
2022/05/10 13:07:28;;;;;;;6.70;4.97;;;;;;;;;;5054438;28;20529;-72
2022/05/10 13:09:57;;;;;;;7.70;5.10;;;;;;;;;;5054071;28;20497;-71
2022/05/10 13:12:25;;;;;;;6.30;4.53;;;;;;;;;;5054242;28;20495;-72
2022/05/10 13:14:56;;;;;;;6.67;5.13;;;;;;;;;;5054201;28;20468;-72
2022/05/10 13:17:24;;;;;;;5.10;4.60;;;;;;;;;;5054250;28;20808;-72
2022/05/10 13:19:51;;;;;;;5.60;5.10;;;;;;;;;;5054037;28;20508;-73
2022/05/10 13:22:20;;;;;;;8.57;5.40;;;;;;;;;;5054386;28;20438;-73
2022/05/10 13:24:48;;;;;;;6.30;4.73;;;;;;;;;;5054007;28;20604;-73
2022/05/10 13:27:24;;;;;;;9.83;4.90;;;;;;;;;;5054251;28;20435;-72
2022/05/10 13:29:51;;;;;;;5.50;4.23;;;;;;;;;;5053987;28;20484;-72
2022/05/10 13:32:31;;;;;;;6.13;5.20;;;;;;;;;;5053557;28;20453;-73
2022/05/10 13:35:02;;;;;;;6.90;4.87;;;;;;;;;;5053786;28;20965;-73
2022/05/10 13:37:32;;;;;;;6.73;5.27;;;;;;;;;;5053663;28;20428;-73
2022/05/10 13:40:00;;;;;;;5.20;4.70;;;;;;;;;;5053736;28;20445;-73
2022/05/10 13:42:28;;;;;;;6.20;5.63;;;;;;;;;;5053879;28;20504;-73
2022/05/10 13:44:55;;;;;;;9.63;4.60;;;;;;;;;;5053764;28;20448;-73
2022/05/10 13:47:26;;;;;;;6.03;5.43;;;;;;;;;;5053688;28;20446;-73
2022/05/10 13:49:55;;;;;;;5.57;5.17;;;;;;;;;;5053175;28;20446;-73
2022/05/10 13:52:28;;;;;;;5.40;4.57;;;;;;;;;;5053465;28;20531;-72
2022/05/10 13:54:56;;;;;;;8.33;5.10;;;;;;;;;;5053460;28;20989;-73
2022/05/10 13:57:25;;;;;;;8.77;5.13;;;;;;;;;;5053260;28;20533;-73
2022/05/10 13:59:53;;;;;;;7.60;4.90;;;;;;;;;;5053544;28;20498;-73
2022/05/10 14:02:22;;;;;;;7.43;4.80;;;;;;;;;;5053366;28;20545;-73
2022/05/10 14:04:51;;;;;;;7.73;5.53;;;;;;;;;;5052841;28;20457;-73
2022/05/10 14:07:20;;;;;;;5.07;4.57;;;;;;;;;;5053048;28;20485;-73
2022/05/10 14:09:49;;;;;;;5.60;5.10;;;;;;;;;;5053311;28;20439;-73
2022/05/10 14:12:21;;;;;;;6.33;5.33;;;;;;;;;;5053378;28;20479;-73
2022/05/10 14:14:48;;;;;;;6.33;5.60;;;;;;;;;;5053293;28;20434;-73
2022/05/10 14:17:16;;;;;;;6.20;4.90;;;;;;;;;;5053343;28;20810;-73
2022/05/10 14:19:45;;;;;;;9.47;5.70;;;;;;;;;;5052966;28;20453;-73
2022/05/10 14:22:15;;;;;;;6.63;5.10;;;;;;;;;;5053315;28;20446;-74
2022/05/10 14:24:45;;;;;;;7.53;5.33;;;;;;;;;;5052923;28;20432;-73
2022/05/10 14:27:14;;;;;;;7.50;5.17;;;;;;;;;;5053410;28;20837;-73
2022/05/10 14:29:44;;;;;;;5.87;5.30;;;;;;;;;;5053644;28;20794;-73
2022/05/10 14:32:13;;;;;;;5.70;5.07;;;;;;;;;;5053620;28;20838;-73
2022/05/10 14:34:48;;;;;;;5.57;5.10;;;;;;;;;;5053175;28;20437;-73
2022/05/10 14:37:24;;;;;;;7.80;4.83;;;;;;;;;;5052947;28;20478;-73
2022/05/10 14:39:54;;;;;;;10.40;5.43;;;;;;;;;;5053226;28;20516;-73
2022/05/10 14:42:30;;;;;;;5.73;4.87;;;;;;;;;;5053098;28;20442;-72
2022/05/10 14:45:14;;;;;;;8.53;5.87;;;;;;;;;;5053384;28;20888;-72
2022/05/10 14:47:41;;;;;;;6.90;6.17;;;;;;;;;;5053710;28;20468;-73
2022/05/10 14:50:28;;;;;;;6.20;5.57;;;;;;;;;;5053004;28;20536;-73
2022/05/10 14:53:10;;;;;;;9.50;5.67;;;;;;;;;;5052572;28;21005;-73
2022/05/10 14:55:40;;;;;;;8.07;5.63;;;;;;;;;;5053162;28;20425;-72
2022/05/10 14:58:10;;;;;;;5.63;5.03;;;;;;;;;;5053039;28;20446;-74
2022/05/10 15:00:40;;;;;;;5.93;5.43;;;;;;;;;;5052904;28;20456;-73